sensor_id;sensor_type;location;lat;lon;timestamp;pressure;altitude;pressure_sealevel;temperature;humidity
64687;BME280;51113;53.646;-113.674;2023-05-15T00:02:11;94693.72;;;26.79;15.86
64687;BME280;51113;53.646;-113.674;2023-05-15T00:04:40;94706.84;;;26.84;15.90
64687;BME280;51113;53.646;-113.674;2023-05-15T00:07:08;94709.84;;;26.82;16.72
64687;BME280;51113;53.646;-113.674;2023-05-15T00:09:37;94709.47;;;26.96;17.10
64687;BME280;51113;53.646;-113.674;2023-05-15T00:12:06;94698.69;;;26.92;16.07
64687;BME280;51113;53.646;-113.674;2023-05-15T00:14:34;94699.28;;;26.86;15.56
64687;BME280;51113;53.646;-113.674;2023-05-15T00:17:03;94681.41;;;26.74;15.07
64687;BME280;51113;53.646;-113.674;2023-05-15T00:19:32;94687.63;;;26.78;16.05
64687;BME280;51113;53.646;-113.674;2023-05-15T00:22:00;94694.28;;;26.84;15.86
64687;BME280;51113;53.646;-113.674;2023-05-15T00:24:29;94679.41;;;26.71;16.13
64687;BME280;51113;53.646;-113.674;2023-05-15T00:26:59;94691.06;;;26.79;16.11
64687;BME280;51113;53.646;-113.674;2023-05-15T00:29:27;94692.38;;;26.85;16.48
64687;BME280;51113;53.646;-113.674;2023-05-15T00:31:56;94688.72;;;26.89;16.61
64687;BME280;51113;53.646;-113.674;2023-05-15T00:34:24;94695.59;;;26.90;16.21
64687;BME280;51113;53.646;-113.674;2023-05-15T00:36:53;94680.94;;;26.84;15.62
64687;BME280;51113;53.646;-113.674;2023-05-15T00:39:22;94687.38;;;26.83;16.74
64687;BME280;51113;53.646;-113.674;2023-05-15T00:41:51;94684.03;;;26.86;16.94
64687;BME280;51113;53.646;-113.674;2023-05-15T00:44:21;94677.94;;;26.86;16.72
64687;BME280;51113;53.646;-113.674;2023-05-15T00:46:51;94677.53;;;26.71;17.83
64687;BME280;51113;53.646;-113.674;2023-05-15T00:49:20;94661.91;;;26.58;18.13
64687;BME280;51113;53.646;-113.674;2023-05-15T00:51:49;94676.84;;;26.75;17.42
64687;BME280;51113;53.646;-113.674;2023-05-15T00:54:19;94659.03;;;26.51;16.25
64687;BME280;51113;53.646;-113.674;2023-05-15T00:56:49;94670.44;;;26.63;16.00
64687;BME280;51113;53.646;-113.674;2023-05-15T00:59:19;94668.69;;;26.55;16.55
64687;BME280;51113;53.646;-113.674;2023-05-15T01:01:49;94648.38;;;26.38;16.86
64687;BME280;51113;53.646;-113.674;2023-05-15T01:04:17;94664.56;;;26.46;16.63
64687;BME280;51113;53.646;-113.674;2023-05-15T01:06:46;94664.91;;;26.44;16.90
64687;BME280;51113;53.646;-113.674;2023-05-15T01:09:22;94636.69;;;26.31;17.25
64687;BME280;51113;53.646;-113.674;2023-05-15T01:11:53;94657.69;;;26.45;17.35
64687;BME280;51113;53.646;-113.674;2023-05-15T01:14:22;94652.81;;;26.34;18.24
64687;BME280;51113;53.646;-113.674;2023-05-15T01:16:50;94664.34;;;26.26;18.67
64687;BME280;51113;53.646;-113.674;2023-05-15T01:19:19;94642.94;;;26.11;18.17
64687;BME280;51113;53.646;-113.674;2023-05-15T01:29:53;94645.38;;;26.03;17.46
64687;BME280;51113;53.646;-113.674;2023-05-15T01:41:03;94634.34;;;25.23;20.71
64687;BME280;51113;53.646;-113.674;2023-05-15T01:43:35;94622.38;;;24.96;21.56
64687;BME280;51113;53.646;-113.674;2023-05-15T01:46:06;94632.50;;;24.82;23.22
64687;BME280;51113;53.646;-113.674;2023-05-15T01:48:35;94625.47;;;24.65;22.21
64687;BME280;51113;53.646;-113.674;2023-05-15T01:51:06;94627.28;;;24.23;23.46
64687;BME280;51113;53.646;-113.674;2023-05-15T01:53:36;94627.97;;;24.11;22.67
64687;BME280;51113;53.646;-113.674;2023-05-15T01:56:06;94630.81;;;24.06;23.97
64687;BME280;51113;53.646;-113.674;2023-05-15T01:58:38;94625.78;;;23.84;22.93
64687;BME280;51113;53.646;-113.674;2023-05-15T02:01:08;94625.31;;;23.82;25.38
64687;BME280;51113;53.646;-113.674;2023-05-15T02:03:37;94616.16;;;23.71;24.58
64687;BME280;51113;53.646;-113.674;2023-05-15T02:06:07;94620.09;;;23.94;22.47
64687;BME280;51113;53.646;-113.674;2023-05-15T02:08:36;94630.16;;;23.80;25.09
64687;BME280;51113;53.646;-113.674;2023-05-15T02:11:05;94626.59;;;23.76;24.05
64687;BME280;51113;53.646;-113.674;2023-05-15T02:13:35;94624.81;;;23.89;24.40
64687;BME280;51113;53.646;-113.674;2023-05-15T02:16:05;94621.59;;;23.74;23.98
64687;BME280;51113;53.646;-113.674;2023-05-15T02:18:33;94613.22;;;23.64;26.40
64687;BME280;51113;53.646;-113.674;2023-05-15T02:21:02;94622.59;;;23.61;27.80
64687;BME280;51113;53.646;-113.674;2023-05-15T02:23:31;94616.56;;;23.81;24.69
64687;BME280;51113;53.646;-113.674;2023-05-15T02:26:13;94624.75;;;23.68;25.64
64687;BME280;51113;53.646;-113.674;2023-05-15T02:34:29;94620.72;;;23.53;25.43
64687;BME280;51113;53.646;-113.674;2023-05-15T02:37:02;94621.81;;;23.52;24.48
64687;BME280;51113;53.646;-113.674;2023-05-15T02:39:32;94600.50;;;23.31;25.51
64687;BME280;51113;53.646;-113.674;2023-05-15T02:42:02;94600.88;;;23.04;28.25
64687;BME280;51113;53.646;-113.674;2023-05-15T02:44:32;94611.63;;;23.16;25.67
64687;BME280;51113;53.646;-113.674;2023-05-15T02:47:03;94619.13;;;23.05;26.35
64687;BME280;51113;53.646;-113.674;2023-05-15T02:49:33;94615.56;;;22.93;26.65
64687;BME280;51113;53.646;-113.674;2023-05-15T02:52:03;94617.59;;;22.87;26.81
64687;BME280;51113;53.646;-113.674;2023-05-15T02:54:31;94617.88;;;22.77;27.27
64687;BME280;51113;53.646;-113.674;2023-05-15T02:56:59;94615.25;;;22.60;27.59
64687;BME280;51113;53.646;-113.674;2023-05-15T02:59:28;94617.72;;;22.47;27.46
64687;BME280;51113;53.646;-113.674;2023-05-15T03:01:57;94599.03;;;22.44;26.28
64687;BME280;51113;53.646;-113.674;2023-05-15T03:04:26;94595.28;;;22.45;26.53
64687;BME280;51113;53.646;-113.674;2023-05-15T03:06:55;94617.09;;;22.50;26.20
64687;BME280;51113;53.646;-113.674;2023-05-15T03:09:24;94620.38;;;22.39;26.66
64687;BME280;51113;53.646;-113.674;2023-05-15T03:11:52;94620.03;;;22.23;26.99
64687;BME280;51113;53.646;-113.674;2023-05-15T03:14:21;94601.34;;;22.11;25.94
64687;BME280;51113;53.646;-113.674;2023-05-15T03:16:50;94621.75;;;22.19;26.43
64687;BME280;51113;53.646;-113.674;2023-05-15T03:19:18;94621.25;;;22.08;26.81
64687;BME280;51113;53.646;-113.674;2023-05-15T03:21:47;94631.69;;;22.05;26.37
64687;BME280;51113;53.646;-113.674;2023-05-15T03:24:16;94627.72;;;21.93;26.68
64687;BME280;51113;53.646;-113.674;2023-05-15T03:26:44;94616.81;;;21.86;26.62
64687;BME280;51113;53.646;-113.674;2023-05-15T03:29:13;94594.94;;;21.64;26.42
64687;BME280;51113;53.646;-113.674;2023-05-15T03:31:42;94607.25;;;21.68;26.80
64687;BME280;51113;53.646;-113.674;2023-05-15T03:34:11;94626.53;;;21.60;27.04
64687;BME280;51113;53.646;-113.674;2023-05-15T03:36:39;94628.06;;;21.61;26.95
64687;BME280;51113;53.646;-113.674;2023-05-15T03:39:08;94622.41;;;21.45;27.12
64687;BME280;51113;53.646;-113.674;2023-05-15T03:41:36;94624.88;;;21.42;26.65
64687;BME280;51113;53.646;-113.674;2023-05-15T03:44:05;94625.63;;;21.34;27.04
64687;BME280;51113;53.646;-113.674;2023-05-15T03:46:33;94624.41;;;21.17;27.50
64687;BME280;51113;53.646;-113.674;2023-05-15T03:49:02;94629.34;;;21.10;27.27
64687;BME280;51113;53.646;-113.674;2023-05-15T03:51:31;94616.16;;;20.88;27.68
64687;BME280;51113;53.646;-113.674;2023-05-15T03:54:00;94638.97;;;20.84;27.93
64687;BME280;51113;53.646;-113.674;2023-05-15T03:56:28;94635.34;;;20.80;27.60
64687;BME280;51113;53.646;-113.674;2023-05-15T03:58:58;94629.19;;;20.48;28.62
64687;BME280;51113;53.646;-113.674;2023-05-15T04:01:26;94636.16;;;20.44;28.55
64687;BME280;51113;53.646;-113.674;2023-05-15T04:03:54;94611.66;;;20.16;28.98
64687;BME280;51113;53.646;-113.674;2023-05-15T04:06:23;94636.06;;;20.22;29.21
64687;BME280;51113;53.646;-113.674;2023-05-15T04:08:52;94623.22;;;19.93;29.81
64687;BME280;51113;53.646;-113.674;2023-05-15T04:11:20;94637.66;;;20.09;29.03
64687;BME280;51113;53.646;-113.674;2023-05-15T04:13:50;94640.31;;;19.95;29.93
64687;BME280;51113;53.646;-113.674;2023-05-15T04:16:18;94643.53;;;19.79;30.08
64687;BME280;51113;53.646;-113.674;2023-05-15T04:18:47;94642.63;;;19.56;32.06
64687;BME280;51113;53.646;-113.674;2023-05-15T04:21:15;94632.53;;;19.44;30.78
64687;BME280;51113;53.646;-113.674;2023-05-15T04:23:44;94643.00;;;19.49;31.02
64687;BME280;51113;53.646;-113.674;2023-05-15T04:26:12;94621.41;;;19.33;30.21
64687;BME280;51113;53.646;-113.674;2023-05-15T04:28:41;94640.44;;;19.30;30.95
64687;BME280;51113;53.646;-113.674;2023-05-15T04:31:28;94620.69;;;19.14;31.61
64687;BME280;51113;53.646;-113.674;2023-05-15T04:33:58;94632.94;;;19.05;31.69
64687;BME280;51113;53.646;-113.674;2023-05-15T04:36:27;94637.84;;;19.12;30.93
64687;BME280;51113;53.646;-113.674;2023-05-15T04:38:55;94636.56;;;19.09;31.39
64687;BME280;51113;53.646;-113.674;2023-05-15T04:41:25;94624.66;;;18.98;31.46
64687;BME280;51113;53.646;-113.674;2023-05-15T04:43:54;94611.56;;;18.93;31.98
64687;BME280;51113;53.646;-113.674;2023-05-15T04:46:23;94629.91;;;18.98;31.38
64687;BME280;51113;53.646;-113.674;2023-05-15T04:48:52;94623.25;;;18.87;31.21
64687;BME280;51113;53.646;-113.674;2023-05-15T04:51:20;94636.63;;;18.90;31.97
64687;BME280;51113;53.646;-113.674;2023-05-15T04:53:49;94638.13;;;18.78;31.89
64687;BME280;51113;53.646;-113.674;2023-05-15T04:56:17;94632.28;;;18.81;31.87
64687;BME280;51113;53.646;-113.674;2023-05-15T04:58:46;94634.84;;;18.86;31.38
64687;BME280;51113;53.646;-113.674;2023-05-15T05:01:15;94637.47;;;18.86;31.76
64687;BME280;51113;53.646;-113.674;2023-05-15T05:03:44;94630.47;;;18.95;31.38
64687;BME280;51113;53.646;-113.674;2023-05-15T05:06:12;94642.59;;;18.96;31.74
64687;BME280;51113;53.646;-113.674;2023-05-15T05:08:41;94638.81;;;19.02;31.05
64687;BME280;51113;53.646;-113.674;2023-05-15T05:11:09;94613.22;;;18.89;31.84
64687;BME280;51113;53.646;-113.674;2023-05-15T05:13:38;94641.88;;;18.90;32.77
64687;BME280;51113;53.646;-113.674;2023-05-15T05:16:07;94635.84;;;18.90;32.06
64687;BME280;51113;53.646;-113.674;2023-05-15T05:18:36;94630.06;;;18.88;32.26
64687;BME280;51113;53.646;-113.674;2023-05-15T05:21:05;94614.88;;;18.66;32.46
64687;BME280;51113;53.646;-113.674;2023-05-15T05:23:33;94638.22;;;18.73;32.52
64687;BME280;51113;53.646;-113.674;2023-05-15T05:26:02;94633.34;;;18.80;32.56
64687;BME280;51113;53.646;-113.674;2023-05-15T05:28:32;94636.50;;;18.82;32.50
64687;BME280;51113;53.646;-113.674;2023-05-15T05:31:00;94619.16;;;18.62;32.50
64687;BME280;51113;53.646;-113.674;2023-05-15T05:33:30;94631.44;;;18.66;32.99
64687;BME280;51113;53.646;-113.674;2023-05-15T05:35:58;94636.22;;;18.64;32.96
64687;BME280;51113;53.646;-113.674;2023-05-15T05:38:27;94642.25;;;18.65;33.03
64687;BME280;51113;53.646;-113.674;2023-05-15T05:40:55;94619.91;;;18.44;33.02
64687;BME280;51113;53.646;-113.674;2023-05-15T05:43:27;94629.38;;;18.45;34.50
64687;BME280;51113;53.646;-113.674;2023-05-15T05:45:56;94626.03;;;18.39;34.11
64687;BME280;51113;53.646;-113.674;2023-05-15T05:48:25;94631.78;;;18.41;34.05
64687;BME280;51113;53.646;-113.674;2023-05-15T05:50:53;94614.59;;;18.30;34.17
64687;BME280;51113;53.646;-113.674;2023-05-15T05:53:22;94626.53;;;18.41;34.11
64687;BME280;51113;53.646;-113.674;2023-05-15T05:55:50;94625.38;;;18.28;34.88
64687;BME280;51113;53.646;-113.674;2023-05-15T05:58:19;94618.06;;;18.25;35.00
64687;BME280;51113;53.646;-113.674;2023-05-15T06:00:52;94625.25;;;18.20;35.21
64687;BME280;51113;53.646;-113.674;2023-05-15T06:03:26;94617.41;;;18.15;35.19
64687;BME280;51113;53.646;-113.674;2023-05-15T06:05:55;94618.63;;;18.22;35.25
64687;BME280;51113;53.646;-113.674;2023-05-15T06:08:24;94611.09;;;18.16;35.67
64687;BME280;51113;53.646;-113.674;2023-05-15T06:10:55;94592.47;;;17.93;35.53
64687;BME280;51113;53.646;-113.674;2023-05-15T06:13:24;94603.97;;;17.97;35.97
64687;BME280;51113;53.646;-113.674;2023-05-15T06:15:52;94610.22;;;18.01;35.89
64687;BME280;51113;53.646;-113.674;2023-05-15T06:18:21;94613.41;;;17.98;35.95
64687;BME280;51113;53.646;-113.674;2023-05-15T06:20:50;94589.47;;;17.81;36.54
64687;BME280;51113;53.646;-113.674;2023-05-15T06:23:18;94589.75;;;17.80;36.54
64687;BME280;51113;53.646;-113.674;2023-05-15T06:25:50;94608.16;;;17.98;36.64
64687;BME280;51113;53.646;-113.674;2023-05-15T06:28:18;94610.00;;;17.98;36.67
64687;BME280;51113;53.646;-113.674;2023-05-15T06:30:47;94595.44;;;17.87;37.01
64687;BME280;51113;53.646;-113.674;2023-05-15T06:33:16;94580.13;;;17.70;37.31
64687;BME280;51113;53.646;-113.674;2023-05-15T06:35:44;94606.06;;;17.77;37.68
64687;BME280;51113;53.646;-113.674;2023-05-15T06:38:13;94600.59;;;17.73;37.95
64687;BME280;51113;53.646;-113.674;2023-05-15T06:40:41;94602.22;;;17.69;38.31
64687;BME280;51113;53.646;-113.674;2023-05-15T06:43:10;94566.03;;;17.61;38.21
64687;BME280;51113;53.646;-113.674;2023-05-15T06:45:38;94594.56;;;17.72;38.47
64687;BME280;51113;53.646;-113.674;2023-05-15T06:48:07;94593.78;;;17.72;38.52
64687;BME280;51113;53.646;-113.674;2023-05-15T06:50:37;94596.69;;;17.70;38.60
64687;BME280;51113;53.646;-113.674;2023-05-15T06:53:05;94588.31;;;17.63;39.20
64687;BME280;51113;53.646;-113.674;2023-05-15T06:55:34;94592.41;;;17.51;39.39
64687;BME280;51113;53.646;-113.674;2023-05-15T06:58:05;94559.56;;;17.29;39.67
64687;BME280;51113;53.646;-113.674;2023-05-15T07:00:33;94581.22;;;17.40;40.31
64687;BME280;51113;53.646;-113.674;2023-05-15T07:03:02;94581.50;;;17.38;40.32
64687;BME280;51113;53.646;-113.674;2023-05-15T07:05:31;94589.16;;;17.35;40.57
64687;BME280;51113;53.646;-113.674;2023-05-15T07:08:00;94582.19;;;17.25;40.86
64687;BME280;51113;53.646;-113.674;2023-05-15T07:10:28;94581.44;;;17.20;41.22
64687;BME280;51113;53.646;-113.674;2023-05-15T07:12:56;94580.44;;;17.16;41.75
64687;BME280;51113;53.646;-113.674;2023-05-15T07:15:25;94575.47;;;17.14;41.55
64687;BME280;51113;53.646;-113.674;2023-05-15T07:17:53;94561.19;;;16.96;41.77
64687;BME280;51113;53.646;-113.674;2023-05-15T07:20:22;94578.19;;;17.04;42.17
64687;BME280;51113;53.646;-113.674;2023-05-15T07:22:55;94574.81;;;16.98;42.37
64687;BME280;51113;53.646;-113.674;2023-05-15T07:25:24;94575.94;;;16.92;42.89
64687;BME280;51113;53.646;-113.674;2023-05-15T07:27:53;94571.69;;;16.96;42.98
64687;BME280;51113;53.646;-113.674;2023-05-15T07:30:22;94571.78;;;16.86;43.27
64687;BME280;51113;53.646;-113.674;2023-05-15T07:32:51;94579.16;;;16.84;43.37
64687;BME280;51113;53.646;-113.674;2023-05-15T07:35:19;94573.69;;;16.81;43.76
64687;BME280;51113;53.646;-113.674;2023-05-15T07:37:48;94575.25;;;16.82;43.93
64687;BME280;51113;53.646;-113.674;2023-05-15T07:40:17;94571.00;;;16.86;43.79
64687;BME280;51113;53.646;-113.674;2023-05-15T07:42:45;94565.91;;;16.70;44.74
64687;BME280;51113;53.646;-113.674;2023-05-15T07:45:14;94573.81;;;16.65;44.97
64687;BME280;51113;53.646;-113.674;2023-05-15T07:47:45;94560.19;;;16.58;45.07
64687;BME280;51113;53.646;-113.674;2023-05-15T07:50:14;94559.97;;;16.55;45.48
64687;BME280;51113;53.646;-113.674;2023-05-15T07:52:43;94556.59;;;16.49;45.83
64687;BME280;51113;53.646;-113.674;2023-05-15T07:55:12;94553.22;;;16.43;45.99
64687;BME280;51113;53.646;-113.674;2023-05-15T07:57:40;94556.66;;;16.39;46.31
64687;BME280;51113;53.646;-113.674;2023-05-15T08:00:09;94552.25;;;16.34;46.80
64687;BME280;51113;53.646;-113.674;2023-05-15T08:02:39;94544.97;;;16.26;47.31
64687;BME280;51113;53.646;-113.674;2023-05-15T08:05:08;94553.88;;;16.25;47.45
64687;BME280;51113;53.646;-113.674;2023-05-15T08:07:36;94546.31;;;16.19;48.00
64687;BME280;51113;53.646;-113.674;2023-05-15T08:10:06;94517.84;;;16.07;47.85
64687;BME280;51113;53.646;-113.674;2023-05-15T08:12:36;94548.16;;;16.18;48.21
64687;BME280;51113;53.646;-113.674;2023-05-15T08:15:05;94541.97;;;16.04;48.86
64687;BME280;51113;53.646;-113.674;2023-05-15T08:17:33;94514.81;;;15.90;48.79
64687;BME280;51113;53.646;-113.674;2023-05-15T08:20:02;94539.81;;;16.11;48.93
64687;BME280;51113;53.646;-113.674;2023-05-15T08:22:32;94533.06;;;16.05;49.20
64687;BME280;51113;53.646;-113.674;2023-05-15T08:25:01;94533.88;;;16.00;49.58
64687;BME280;51113;53.646;-113.674;2023-05-15T08:27:31;94538.31;;;16.00;49.69
64687;BME280;51113;53.646;-113.674;2023-05-15T08:29:59;94533.09;;;16.00;49.70
64687;BME280;51113;53.646;-113.674;2023-05-15T08:32:28;94529.16;;;15.97;49.82
64687;BME280;51113;53.646;-113.674;2023-05-15T08:34:56;94519.53;;;15.88;50.42
64687;BME280;51113;53.646;-113.674;2023-05-15T08:37:25;94525.06;;;15.81;50.63
64687;BME280;51113;53.646;-113.674;2023-05-15T08:39:56;94507.91;;;15.60;51.20
64687;BME280;51113;53.646;-113.674;2023-05-15T08:42:46;94522.53;;;15.66;51.13
64687;BME280;51113;53.646;-113.674;2023-05-15T08:45:16;94520.41;;;15.73;51.30
64687;BME280;51113;53.646;-113.674;2023-05-15T08:47:44;94516.22;;;15.72;51.49
64687;BME280;51113;53.646;-113.674;2023-05-15T08:50:15;94513.59;;;15.72;51.65
64687;BME280;51113;53.646;-113.674;2023-05-15T08:52:46;94505.25;;;15.65;51.67
64687;BME280;51113;53.646;-113.674;2023-05-15T08:55:16;94514.72;;;15.61;52.36
64687;BME280;51113;53.646;-113.674;2023-05-15T08:57:46;94508.94;;;15.64;52.20
64687;BME280;51113;53.646;-113.674;2023-05-15T09:00:15;94508.69;;;15.60;52.56
64687;BME280;51113;53.646;-113.674;2023-05-15T09:02:45;94508.69;;;15.55;52.86
64687;BME280;51113;53.646;-113.674;2023-05-15T09:05:14;94507.41;;;15.47;52.95
64687;BME280;51113;53.646;-113.674;2023-05-15T09:07:43;94501.94;;;15.44;53.45
64687;BME280;51113;53.646;-113.674;2023-05-15T09:10:14;94470.84;;;15.27;53.59
64687;BME280;51113;53.646;-113.674;2023-05-15T09:12:43;94501.94;;;15.44;53.81
64687;BME280;51113;53.646;-113.674;2023-05-15T09:15:13;94491.69;;;15.47;53.81
64687;BME280;51113;53.646;-113.674;2023-05-15T09:17:44;94495.06;;;15.53;53.61
64687;BME280;51113;53.646;-113.674;2023-05-15T09:20:33;94495.06;;;15.53;53.80
64687;BME280;51113;53.646;-113.674;2023-05-15T09:23:04;94472.59;;;15.47;53.85
64687;BME280;51113;53.646;-113.674;2023-05-15T09:28:02;94455.13;;;15.32;54.34
64687;BME280;51113;53.646;-113.674;2023-05-15T09:30:31;94479.91;;;15.50;54.21
64687;BME280;51113;53.646;-113.674;2023-05-15T09:33:02;94484.88;;;15.51;54.32
64687;BME280;51113;53.646;-113.674;2023-05-15T09:35:36;94474.41;;;15.46;54.65
64687;BME280;51113;53.646;-113.674;2023-05-15T09:38:10;94474.41;;;15.46;54.90
64687;BME280;51113;53.646;-113.674;2023-05-15T09:40:39;94472.84;;;15.45;55.07
64687;BME280;51113;53.646;-113.674;2023-05-15T09:43:11;94473.16;;;15.39;55.29
64687;BME280;51113;53.646;-113.674;2023-05-15T09:45:39;94464.03;;;15.31;55.71
64687;BME280;51113;53.646;-113.674;2023-05-15T09:48:08;94438.47;;;15.13;55.87
64687;BME280;51113;53.646;-113.674;2023-05-15T09:50:40;94465.31;;;15.34;55.69
64687;BME280;51113;53.646;-113.674;2023-05-15T09:53:12;94426.63;;;15.26;55.43
64687;BME280;51113;53.646;-113.674;2023-05-15T09:55:47;94458.75;;;15.41;55.93
64687;BME280;51113;53.646;-113.674;2023-05-15T09:58:17;94464.53;;;15.33;55.89
64687;BME280;51113;53.646;-113.674;2023-05-15T10:00:46;94437.13;;;15.21;56.03
64687;BME280;51113;53.646;-113.674;2023-05-15T10:03:18;94462.97;;;15.32;56.10
64687;BME280;51113;53.646;-113.674;2023-05-15T10:05:48;94452.00;;;15.30;56.76
64687;BME280;51113;53.646;-113.674;2023-05-15T10:08:25;94456.47;;;15.25;56.86
64687;BME280;51113;53.646;-113.674;2023-05-15T10:10:58;94449.63;;;15.29;57.00
64687;BME280;51113;53.646;-113.674;2023-05-15T10:13:30;94423.06;;;15.01;57.05
64687;BME280;51113;53.646;-113.674;2023-05-15T10:16:00;94451.53;;;15.13;57.28
64687;BME280;51113;53.646;-113.674;2023-05-15T10:18:32;94448.41;;;15.16;57.61
64687;BME280;51113;53.646;-113.674;2023-05-15T10:21:01;94423.84;;;15.02;57.50
64687;BME280;51113;53.646;-113.674;2023-05-15T10:23:35;94437.66;;;15.17;57.71
64687;BME280;51113;53.646;-113.674;2023-05-15T10:26:13;94422.53;;;15.04;57.95
64687;BME280;51113;53.646;-113.674;2023-05-15T10:28:43;94438.41;;;15.23;57.94
64687;BME280;51113;53.646;-113.674;2023-05-15T10:31:12;94432.16;;;15.19;58.00
64687;BME280;51113;53.646;-113.674;2023-05-15T10:33:43;94433.75;;;15.15;58.14
64687;BME280;51113;53.646;-113.674;2023-05-15T10:36:12;94439.50;;;15.12;58.59
64687;BME280;51113;53.646;-113.674;2023-05-15T10:38:42;94440.84;;;15.09;58.75
64687;BME280;51113;53.646;-113.674;2023-05-15T10:41:12;94436.63;;;15.13;58.40
64687;BME280;51113;53.646;-113.674;2023-05-15T10:43:44;94424.84;;;15.16;58.77
64687;BME280;51113;53.646;-113.674;2023-05-15T10:46:15;94434.22;;;15.22;58.44
64687;BME280;51113;53.646;-113.674;2023-05-15T10:48:44;94426.34;;;15.27;58.41
64687;BME280;51113;53.646;-113.674;2023-05-15T10:51:39;94433.72;;;15.20;58.77
64687;BME280;51113;53.646;-113.674;2023-05-15T10:54:09;94420.34;;;15.27;58.35
64687;BME280;51113;53.646;-113.674;2023-05-15T10:56:38;94429.25;;;15.26;58.53
64687;BME280;51113;53.646;-113.674;2023-05-15T10:59:09;94423.53;;;15.18;58.97
64687;BME280;51113;53.646;-113.674;2023-05-15T11:01:39;94419.59;;;15.16;58.90
64687;BME280;51113;53.646;-113.674;2023-05-15T11:04:09;94413.06;;;15.18;59.07
64687;BME280;51113;53.646;-113.674;2023-05-15T11:06:39;94392.22;;;14.98;58.87
64687;BME280;51113;53.646;-113.674;2023-05-15T11:14:25;94414.16;;;15.07;59.50
64687;BME280;51113;53.646;-113.674;2023-05-15T11:25:00;94399.03;;;14.94;60.23
64687;BME280;51113;53.646;-113.674;2023-05-15T11:27:30;94398.25;;;14.94;60.30
64687;BME280;51113;53.646;-113.674;2023-05-15T11:30:15;94402.44;;;14.95;60.10
64687;BME280;51113;53.646;-113.674;2023-05-15T11:35:44;94403.00;;;14.86;60.43
64687;BME280;51113;53.646;-113.674;2023-05-15T11:38:16;94380.81;;;14.74;60.59
64687;BME280;51113;53.646;-113.674;2023-05-15T11:40:57;94399.84;;;14.90;60.28
64687;BME280;51113;53.646;-113.674;2023-05-15T11:43:35;94398.53;;;14.87;60.48
64687;BME280;51113;53.646;-113.674;2023-05-15T11:46:08;94403.50;;;14.89;60.51
64687;BME280;51113;53.646;-113.674;2023-05-15T11:48:44;94404.03;;;14.85;60.83
64687;BME280;51113;53.646;-113.674;2023-05-15T11:51:21;94393.56;;;14.91;60.49
64687;BME280;51113;53.646;-113.674;2023-05-15T11:53:54;94377.38;;;14.83;60.30
64687;BME280;51113;53.646;-113.674;2023-05-15T11:56:24;94393.06;;;14.89;60.47
64687;BME280;51113;53.646;-113.674;2023-05-15T11:58:58;94356.50;;;14.73;60.68
64687;BME280;51113;53.646;-113.674;2023-05-15T12:01:38;94393.31;;;14.87;60.93
64687;BME280;51113;53.646;-113.674;2023-05-15T12:04:14;94362.28;;;14.65;61.08
64687;BME280;51113;53.646;-113.674;2023-05-15T12:06:44;94392.50;;;14.92;60.78
64687;BME280;51113;53.646;-113.674;2023-05-15T12:09:16;94388.34;;;14.91;60.89
64687;BME280;51113;53.646;-113.674;2023-05-15T12:11:53;94388.09;;;14.87;61.02
64687;BME280;51113;53.646;-113.674;2023-05-15T12:14:29;94389.91;;;14.92;60.47
64687;BME280;51113;53.646;-113.674;2023-05-15T12:17:00;94379.94;;;14.99;60.53
64687;BME280;51113;53.646;-113.674;2023-05-15T12:19:33;94365.34;;;14.82;60.54
64687;BME280;51113;53.646;-113.674;2023-05-15T12:22:06;94377.31;;;14.99;60.48
64687;BME280;51113;53.646;-113.674;2023-05-15T12:24:37;94380.16;;;15.02;60.43
64687;BME280;51113;53.646;-113.674;2023-05-15T12:27:07;94378.56;;;15.06;60.51
64687;BME280;51113;53.646;-113.674;2023-05-15T12:29:37;94374.13;;;15.07;60.44
64687;BME280;51113;53.646;-113.674;2023-05-15T12:32:07;94372.56;;;15.06;60.48
64687;BME280;51113;53.646;-113.674;2023-05-15T12:34:36;94368.88;;;15.12;59.85
64687;BME280;51113;53.646;-113.674;2023-05-15T12:37:04;94379.59;;;15.10;60.10
64687;BME280;51113;53.646;-113.674;2023-05-15T12:39:33;94383.97;;;15.25;60.01
64687;BME280;51113;53.646;-113.674;2023-05-15T12:42:02;94380.03;;;15.28;60.04
64687;BME280;51113;53.646;-113.674;2023-05-15T12:44:31;94377.91;;;15.30;60.14
64687;BME280;51113;53.646;-113.674;2023-05-15T12:47:00;94375.34;;;15.25;59.90
64687;BME280;51113;53.646;-113.674;2023-05-15T12:49:29;94369.28;;;15.29;60.01
64687;BME280;51113;53.646;-113.674;2023-05-15T12:51:57;94382.63;;;15.33;59.97
64687;BME280;51113;53.646;-113.674;2023-05-15T12:54:38;94352.59;;;15.20;60.01
64687;BME280;51113;53.646;-113.674;2023-05-15T12:57:08;94375.47;;;15.43;59.82
64687;BME280;51113;53.646;-113.674;2023-05-15T12:59:38;94372.81;;;15.48;59.75
64687;BME280;51113;53.646;-113.674;2023-05-15T13:02:12;94374.91;;;15.51;59.34
64687;BME280;51113;53.646;-113.674;2023-05-15T13:04:41;94351.38;;;15.46;59.24
64687;BME280;51113;53.646;-113.674;2023-05-15T13:07:09;94373.50;;;15.69;58.86
64687;BME280;51113;53.646;-113.674;2023-05-15T13:09:43;94369.50;;;15.77;58.72
64687;BME280;51113;53.646;-113.674;2023-05-15T13:12:18;94367.34;;;15.84;58.76
64687;BME280;51113;53.646;-113.674;2023-05-15T13:14:46;94354.75;;;15.86;58.32
64687;BME280;51113;53.646;-113.674;2023-05-15T13:17:15;94336.97;;;15.83;58.18
64687;BME280;51113;53.646;-113.674;2023-05-15T13:19:43;94357.47;;;16.05;57.78
64687;BME280;51113;53.646;-113.674;2023-05-15T13:22:11;94355.59;;;16.10;57.92
64687;BME280;51113;53.646;-113.674;2023-05-15T13:24:44;94341.88;;;16.19;57.30
64687;BME280;51113;53.646;-113.674;2023-05-15T13:27:12;94348.63;;;16.25;57.30